sensor_id;sensor_type;location;lat;lon;timestamp;temperature;humidity
32612;DHT22;19030;49.478;8.986;2023-08-20T00:01:06;21.90;99.90
32612;DHT22;19030;49.478;8.986;2023-08-20T00:03:13;21.90;99.90
32612;DHT22;19030;49.478;8.986;2023-08-20T00:05:14;21.90;99.90
32612;DHT22;19030;49.478;8.986;2023-08-20T00:07:15;21.90;99.90
32612;DHT22;19030;49.478;8.986;2023-08-20T00:09:18;21.90;99.90
32612;DHT22;19030;49.478;8.986;2023-08-20T00:11:19;21.90;99.90
32612;DHT22;19030;49.478;8.986;2023-08-20T00:13:19;21.90;99.90
32612;DHT22;19030;49.478;8.986;2023-08-20T00:15:20;21.90;99.90
32612;DHT22;19030;49.478;8.986;2023-08-20T00:17:22;21.90;99.90
32612;DHT22;19030;49.478;8.986;2023-08-20T00:19:25;21.90;99.90
32612;DHT22;19030;49.478;8.986;2023-08-20T00:21:26;21.90;99.90
32612;DHT22;19030;49.478;8.986;2023-08-20T00:23:28;21.90;99.90
32612;DHT22;19030;49.478;8.986;2023-08-20T00:25:29;21.90;99.90
32612;DHT22;19030;49.478;8.986;2023-08-20T00:27:30;21.90;99.90
32612;DHT22;19030;49.478;8.986;2023-08-20T00:29:30;21.80;99.90
32612;DHT22;19030;49.478;8.986;2023-08-20T00:31:31;21.90;99.90
32612;DHT22;19030;49.478;8.986;2023-08-20T00:33:32;21.80;99.90
32612;DHT22;19030;49.478;8.986;2023-08-20T00:35:33;21.80;99.90
32612;DHT22;19030;49.478;8.986;2023-08-20T00:37:33;21.80;99.90
32612;DHT22;19030;49.478;8.986;2023-08-20T00:39:34;21.80;99.90
32612;DHT22;19030;49.478;8.986;2023-08-20T00:41:34;21.80;99.90
32612;DHT22;19030;49.478;8.986;2023-08-20T00:43:35;21.80;99.90
32612;DHT22;19030;49.478;8.986;2023-08-20T00:45:36;21.80;99.90
32612;DHT22;19030;49.478;8.986;2023-08-20T00:47:37;21.80;99.90
32612;DHT22;19030;49.478;8.986;2023-08-20T00:49:39;21.70;99.90
32612;DHT22;19030;49.478;8.986;2023-08-20T00:51:40;21.70;99.90
32612;DHT22;19030;49.478;8.986;2023-08-20T00:53:41;21.70;99.90
32612;DHT22;19030;49.478;8.986;2023-08-20T00:55:42;21.70;99.90
32612;DHT22;19030;49.478;8.986;2023-08-20T00:57:44;21.70;99.90
32612;DHT22;19030;49.478;8.986;2023-08-20T00:59:47;21.70;99.90
32612;DHT22;19030;49.478;8.986;2023-08-20T01:01:49;21.70;99.90
32612;DHT22;19030;49.478;8.986;2023-08-20T01:03:50;21.60;99.90
32612;DHT22;19030;49.478;8.986;2023-08-20T01:06:03;21.60;99.90
32612;DHT22;19030;49.478;8.986;2023-08-20T01:12:17;21.60;99.90
32612;DHT22;19030;49.478;8.986;2023-08-20T01:14:18;21.60;99.90
32612;DHT22;19030;49.478;8.986;2023-08-20T01:16:18;21.60;99.90
32612;DHT22;19030;49.478;8.986;2023-08-20T01:18:19;21.60;99.90
32612;DHT22;19030;49.478;8.986;2023-08-20T01:20:21;21.60;99.90
32612;DHT22;19030;49.478;8.986;2023-08-20T01:22:36;21.50;99.90
32612;DHT22;19030;49.478;8.986;2023-08-20T01:27:25;21.50;99.90
32612;DHT22;19030;49.478;8.986;2023-08-20T01:29:27;21.50;99.90
32612;DHT22;19030;49.478;8.986;2023-08-20T01:31:28;21.40;99.90
32612;DHT22;19030;49.478;8.986;2023-08-20T01:33:29;21.40;99.90
32612;DHT22;19030;49.478;8.986;2023-08-20T01:35:32;21.40;99.90
32612;DHT22;19030;49.478;8.986;2023-08-20T01:37:48;21.40;99.90
32612;DHT22;19030;49.478;8.986;2023-08-20T01:39:49;21.40;99.90
32612;DHT22;19030;49.478;8.986;2023-08-20T01:41:49;21.40;99.90
32612;DHT22;19030;49.478;8.986;2023-08-20T01:43:50;21.30;99.90
32612;DHT22;19030;49.478;8.986;2023-08-20T01:45:50;21.30;99.90
32612;DHT22;19030;49.478;8.986;2023-08-20T01:47:51;21.30;99.90
32612;DHT22;19030;49.478;8.986;2023-08-20T01:49:52;21.30;99.90
32612;DHT22;19030;49.478;8.986;2023-08-20T01:51:53;21.20;99.90
32612;DHT22;19030;49.478;8.986;2023-08-20T01:53:53;21.20;99.90
32612;DHT22;19030;49.478;8.986;2023-08-20T01:55:57;21.20;99.90
32612;DHT22;19030;49.478;8.986;2023-08-20T01:57:58;21.10;99.90
32612;DHT22;19030;49.478;8.986;2023-08-20T01:59:59;21.10;99.90
32612;DHT22;19030;49.478;8.986;2023-08-20T02:02:00;21.10;99.90
32612;DHT22;19030;49.478;8.986;2023-08-20T02:04:00;21.10;99.90
32612;DHT22;19030;49.478;8.986;2023-08-20T02:06:01;21.00;99.90
32612;DHT22;19030;49.478;8.986;2023-08-20T02:08:01;21.00;99.90
32612;DHT22;19030;49.478;8.986;2023-08-20T02:10:02;21.00;99.90
32612;DHT22;19030;49.478;8.986;2023-08-20T02:12:03;21.00;99.90
32612;DHT22;19030;49.478;8.986;2023-08-20T02:14:04;21.00;99.90
32612;DHT22;19030;49.478;8.986;2023-08-20T02:16:05;20.90;99.90
32612;DHT22;19030;49.478;8.986;2023-08-20T02:18:07;20.90;99.90
32612;DHT22;19030;49.478;8.986;2023-08-20T02:20:07;20.90;99.90
32612;DHT22;19030;49.478;8.986;2023-08-20T02:22:10;20.90;99.90
32612;DHT22;19030;49.478;8.986;2023-08-20T02:24:10;20.80;99.90
32612;DHT22;19030;49.478;8.986;2023-08-20T02:26:11;20.80;99.90
32612;DHT22;19030;49.478;8.986;2023-08-20T02:28:12;20.80;99.90
32612;DHT22;19030;49.478;8.986;2023-08-20T02:30:13;20.80;99.90
32612;DHT22;19030;49.478;8.986;2023-08-20T02:32:17;20.80;99.90
32612;DHT22;19030;49.478;8.986;2023-08-20T02:34:17;20.80;99.90
32612;DHT22;19030;49.478;8.986;2023-08-20T02:36:20;20.70;99.90
32612;DHT22;19030;49.478;8.986;2023-08-20T02:38:21;20.70;99.90
32612;DHT22;19030;49.478;8.986;2023-08-20T02:40:21;20.70;99.90
32612;DHT22;19030;49.478;8.986;2023-08-20T02:42:22;20.60;99.90
32612;DHT22;19030;49.478;8.986;2023-08-20T02:44:23;20.60;99.90
32612;DHT22;19030;49.478;8.986;2023-08-20T02:46:23;20.60;99.90
32612;DHT22;19030;49.478;8.986;2023-08-20T02:48:24;20.60;99.90
32612;DHT22;19030;49.478;8.986;2023-08-20T02:50:28;20.50;99.90
32612;DHT22;19030;49.478;8.986;2023-08-20T02:52:28;20.50;99.90
32612;DHT22;19030;49.478;8.986;2023-08-20T02:54:29;20.50;99.90
32612;DHT22;19030;49.478;8.986;2023-08-20T02:56:32;20.50;99.90
32612;DHT22;19030;49.478;8.986;2023-08-20T02:58:32;20.50;99.90
32612;DHT22;19030;49.478;8.986;2023-08-20T03:00:33;20.50;99.90
32612;DHT22;19030;49.478;8.986;2023-08-20T03:02:34;20.50;99.90
32612;DHT22;19030;49.478;8.986;2023-08-20T03:04:34;20.50;99.90
32612;DHT22;19030;49.478;8.986;2023-08-20T03:06:35;20.50;99.90
32612;DHT22;19030;49.478;8.986;2023-08-20T03:08:35;20.40;99.90
32612;DHT22;19030;49.478;8.986;2023-08-20T03:10:36;20.40;99.90
32612;DHT22;19030;49.478;8.986;2023-08-20T03:12:37;20.40;99.90
32612;DHT22;19030;49.478;8.986;2023-08-20T03:14:37;20.40;99.90
32612;DHT22;19030;49.478;8.986;2023-08-20T03:16:38;20.40;99.90
32612;DHT22;19030;49.478;8.986;2023-08-20T03:18:38;20.40;99.90
32612;DHT22;19030;49.478;8.986;2023-08-20T03:20:39;20.30;99.90
32612;DHT22;19030;49.478;8.986;2023-08-20T03:22:39;20.40;99.90
32612;DHT22;19030;49.478;8.986;2023-08-20T03:24:40;20.30;99.90
32612;DHT22;19030;49.478;8.986;2023-08-20T03:26:41;20.30;99.90
32612;DHT22;19030;49.478;8.986;2023-08-20T03:28:41;20.30;99.90
32612;DHT22;19030;49.478;8.986;2023-08-20T03:30:42;20.30;99.90
32612;DHT22;19030;49.478;8.986;2023-08-20T03:32:43;20.30;99.90
32612;DHT22;19030;49.478;8.986;2023-08-20T03:34:43;20.30;99.90
32612;DHT22;19030;49.478;8.986;2023-08-20T03:36:44;20.30;99.90
32612;DHT22;19030;49.478;8.986;2023-08-20T03:38:45;20.20;99.90
32612;DHT22;19030;49.478;8.986;2023-08-20T03:40:46;20.20;99.90
32612;DHT22;19030;49.478;8.986;2023-08-20T03:42:46;20.20;99.90
32612;DHT22;19030;49.478;8.986;2023-08-20T03:44:48;20.20;99.90
32612;DHT22;19030;49.478;8.986;2023-08-20T03:46:48;20.10;99.90
32612;DHT22;19030;49.478;8.986;2023-08-20T03:48:49;20.10;99.90
32612;DHT22;19030;49.478;8.986;2023-08-20T03:50:50;20.10;99.90
32612;DHT22;19030;49.478;8.986;2023-08-20T03:52:50;20.10;99.90
32612;DHT22;19030;49.478;8.986;2023-08-20T03:54:51;20.10;99.90
32612;DHT22;19030;49.478;8.986;2023-08-20T03:56:51;20.10;99.90
32612;DHT22;19030;49.478;8.986;2023-08-20T03:58:52;20.10;99.90
32612;DHT22;19030;49.478;8.986;2023-08-20T04:00:55;20.10;99.90
32612;DHT22;19030;49.478;8.986;2023-08-20T04:02:56;20.10;99.90
32612;DHT22;19030;49.478;8.986;2023-08-20T04:04:57;20.00;99.90
32612;DHT22;19030;49.478;8.986;2023-08-20T04:06:58;20.00;99.90
32612;DHT22;19030;49.478;8.986;2023-08-20T04:08:59;20.00;99.90
32612;DHT22;19030;49.478;8.986;2023-08-20T04:10:59;20.00;99.90
32612;DHT22;19030;49.478;8.986;2023-08-20T04:13:00;20.00;99.90
32612;DHT22;19030;49.478;8.986;2023-08-20T04:15:00;20.00;99.90
32612;DHT22;19030;49.478;8.986;2023-08-20T04:17:01;20.00;99.90
32612;DHT22;19030;49.478;8.986;2023-08-20T04:19:02;19.90;99.90
32612;DHT22;19030;49.478;8.986;2023-08-20T04:21:03;20.00;99.90
32612;DHT22;19030;49.478;8.986;2023-08-20T04:23:04;19.90;99.90
32612;DHT22;19030;49.478;8.986;2023-08-20T04:25:05;20.00;99.90
32612;DHT22;19030;49.478;8.986;2023-08-20T04:27:05;20.00;99.90
32612;DHT22;19030;49.478;8.986;2023-08-20T04:29:06;19.90;99.90
32612;DHT22;19030;49.478;8.986;2023-08-20T04:31:07;20.00;99.90
32612;DHT22;19030;49.478;8.986;2023-08-20T04:33:20;19.90;99.90
32612;DHT22;19030;49.478;8.986;2023-08-20T04:35:21;19.90;99.90
32612;DHT22;19030;49.478;8.986;2023-08-20T04:37:22;19.90;99.90
32612;DHT22;19030;49.478;8.986;2023-08-20T04:39:23;19.90;99.90
32612;DHT22;19030;49.478;8.986;2023-08-20T04:41:26;19.90;99.90
32612;DHT22;19030;49.478;8.986;2023-08-20T04:43:27;20.00;99.90
32612;DHT22;19030;49.478;8.986;2023-08-20T04:45:28;20.00;99.90
32612;DHT22;19030;49.478;8.986;2023-08-20T04:47:29;20.00;99.90
32612;DHT22;19030;49.478;8.986;2023-08-20T04:49:29;20.00;99.90
32612;DHT22;19030;49.478;8.986;2023-08-20T04:51:30;20.10;99.90
32612;DHT22;19030;49.478;8.986;2023-08-20T04:53:31;20.10;99.90
32612;DHT22;19030;49.478;8.986;2023-08-20T04:55:31;20.10;99.90
32612;DHT22;19030;49.478;8.986;2023-08-20T04:57:32;20.20;99.90
32612;DHT22;19030;49.478;8.986;2023-08-20T04:59:32;20.20;99.90
32612;DHT22;19030;49.478;8.986;2023-08-20T05:01:33;20.30;99.90
32612;DHT22;19030;49.478;8.986;2023-08-20T05:03:35;20.30;99.90
32612;DHT22;19030;49.478;8.986;2023-08-20T05:05:36;20.40;99.90
32612;DHT22;19030;49.478;8.986;2023-08-20T05:07:36;20.40;99.90
32612;DHT22;19030;49.478;8.986;2023-08-20T05:09:37;20.50;99.90
32612;DHT22;19030;49.478;8.986;2023-08-20T05:11:38;20.60;99.90
32612;DHT22;19030;49.478;8.986;2023-08-20T05:13:40;20.70;99.90
32612;DHT22;19030;49.478;8.986;2023-08-20T05:15:40;20.80;99.90
32612;DHT22;19030;49.478;8.986;2023-08-20T05:17:41;20.80;99.90
32612;DHT22;19030;49.478;8.986;2023-08-20T05:19:41;20.90;99.90
32612;DHT22;19030;49.478;8.986;2023-08-20T05:21:43;21.00;99.90
32612;DHT22;19030;49.478;8.986;2023-08-20T05:23:43;21.10;99.90
32612;DHT22;19030;49.478;8.986;2023-08-20T05:25:46;21.20;99.90
32612;DHT22;19030;49.478;8.986;2023-08-20T05:27:47;21.30;99.90
32612;DHT22;19030;49.478;8.986;2023-08-20T05:29:47;21.40;99.90
32612;DHT22;19030;49.478;8.986;2023-08-20T05:31:49;21.50;99.90
32612;DHT22;19030;49.478;8.986;2023-08-20T05:33:50;21.60;99.90
32612;DHT22;19030;49.478;8.986;2023-08-20T05:35:51;21.70;99.90
32612;DHT22;19030;49.478;8.986;2023-08-20T05:37:52;21.70;99.90
32612;DHT22;19030;49.478;8.986;2023-08-20T05:39:53;21.80;99.90
32612;DHT22;19030;49.478;8.986;2023-08-20T05:41:54;21.80;99.90
32612;DHT22;19030;49.478;8.986;2023-08-20T05:43:56;21.80;99.90
32612;DHT22;19030;49.478;8.986;2023-08-20T05:45:57;21.80;99.90
32612;DHT22;19030;49.478;8.986;2023-08-20T05:47:58;21.80;99.90
32612;DHT22;19030;49.478;8.986;2023-08-20T05:49:58;21.80;99.90
32612;DHT22;19030;49.478;8.986;2023-08-20T05:52:00;21.80;99.90
32612;DHT22;19030;49.478;8.986;2023-08-20T05:54:03;21.90;99.90
32612;DHT22;19030;49.478;8.986;2023-08-20T05:56:04;21.80;99.90
32612;DHT22;19030;49.478;8.986;2023-08-20T05:58:05;21.80;99.90
32612;DHT22;19030;49.478;8.986;2023-08-20T06:00:07;21.80;99.90
32612;DHT22;19030;49.478;8.986;2023-08-20T06:02:15;21.80;99.90
32612;DHT22;19030;49.478;8.986;2023-08-20T06:04:17;21.80;99.90
32612;DHT22;19030;49.478;8.986;2023-08-20T06:06:18;21.80;99.90
32612;DHT22;19030;49.478;8.986;2023-08-20T06:08:19;21.80;99.90
32612;DHT22;19030;49.478;8.986;2023-08-20T06:10:19;21.90;99.90
32612;DHT22;19030;49.478;8.986;2023-08-20T06:12:20;22.10;99.90
32612;DHT22;19030;49.478;8.986;2023-08-20T06:14:20;22.50;99.90
32612;DHT22;19030;49.478;8.986;2023-08-20T06:16:21;22.60;99.90
32612;DHT22;19030;49.478;8.986;2023-08-20T06:18:22;22.80;99.90
32612;DHT22;19030;49.478;8.986;2023-08-20T06:20:22;23.00;99.90
32612;DHT22;19030;49.478;8.986;2023-08-20T06:22:23;23.20;99.90
32612;DHT22;19030;49.478;8.986;2023-08-20T06:24:24;23.60;99.90
32612;DHT22;19030;49.478;8.986;2023-08-20T06:26:24;24.30;99.90
32612;DHT22;19030;49.478;8.986;2023-08-20T06:28:25;25.20;99.90
32612;DHT22;19030;49.478;8.986;2023-08-20T06:30:25;26.10;99.90
32612;DHT22;19030;49.478;8.986;2023-08-20T06:32:26;27.00;99.90
32612;DHT22;19030;49.478;8.986;2023-08-20T06:34:26;27.80;99.90
32612;DHT22;19030;49.478;8.986;2023-08-20T06:36:27;28.50;99.90
32612;DHT22;19030;49.478;8.986;2023-08-20T06:38:27;28.90;99.90
32612;DHT22;19030;49.478;8.986;2023-08-20T06:40:28;29.20;99.90
32612;DHT22;19030;49.478;8.986;2023-08-20T06:42:28;29.30;99.90
32612;DHT22;19030;49.478;8.986;2023-08-20T06:44:29;29.70;99.90
32612;DHT22;19030;49.478;8.986;2023-08-20T06:46:30;30.20;99.90
32612;DHT22;19030;49.478;8.986;2023-08-20T06:48:30;30.70;99.90
32612;DHT22;19030;49.478;8.986;2023-08-20T06:50:31;30.80;99.90
32612;DHT22;19030;49.478;8.986;2023-08-20T06:52:31;30.50;99.90
32612;DHT22;19030;49.478;8.986;2023-08-20T06:54:32;29.90;99.90
32612;DHT22;19030;49.478;8.986;2023-08-20T06:56:33;29.20;99.90
32612;DHT22;19030;49.478;8.986;2023-08-20T06:58:33;28.70;99.90
32612;DHT22;19030;49.478;8.986;2023-08-20T07:00:34;28.10;99.90
32612;DHT22;19030;49.478;8.986;2023-08-20T07:02:34;27.80;99.90
32612;DHT22;19030;49.478;8.986;2023-08-20T07:04:35;27.60;99.90
32612;DHT22;19030;49.478;8.986;2023-08-20T07:06:35;27.50;99.90
32612;DHT22;19030;49.478;8.986;2023-08-20T07:08:37;27.30;99.90
32612;DHT22;19030;49.478;8.986;2023-08-20T07:10:39;27.20;99.90
32612;DHT22;19030;49.478;8.986;2023-08-20T07:12:40;27.20;99.90
32612;DHT22;19030;49.478;8.986;2023-08-20T07:14:40;27.30;99.90
32612;DHT22;19030;49.478;8.986;2023-08-20T07:16:41;27.30;99.90
32612;DHT22;19030;49.478;8.986;2023-08-20T07:18:42;27.30;99.90
32612;DHT22;19030;49.478;8.986;2023-08-20T07:20:43;27.20;99.90
32612;DHT22;19030;49.478;8.986;2023-08-20T07:22:43;27.00;99.90
32612;DHT22;19030;49.478;8.986;2023-08-20T07:24:44;26.80;99.90
32612;DHT22;19030;49.478;8.986;2023-08-20T07:26:45;26.60;99.90
32612;DHT22;19030;49.478;8.986;2023-08-20T07:28:45;26.50;99.90
32612;DHT22;19030;49.478;8.986;2023-08-20T07:30:58;26.40;99.90
32612;DHT22;19030;49.478;8.986;2023-08-20T07:32:58;26.60;99.90
32612;DHT22;19030;49.478;8.986;2023-08-20T07:34:59;27.10;99.90
32612;DHT22;19030;49.478;8.986;2023-08-20T07:37:00;27.70;99.90
32612;DHT22;19030;49.478;8.986;2023-08-20T07:39:01;28.00;99.90
32612;DHT22;19030;49.478;8.986;2023-08-20T07:41:03;28.10;99.90
32612;DHT22;19030;49.478;8.986;2023-08-20T07:43:03;28.30;99.90
32612;DHT22;19030;49.478;8.986;2023-08-20T07:45:04;28.40;99.90
32612;DHT22;19030;49.478;8.986;2023-08-20T07:47:05;28.40;99.90
32612;DHT22;19030;49.478;8.986;2023-08-20T07:49:05;28.70;99.90
32612;DHT22;19030;49.478;8.986;2023-08-20T07:51:06;29.10;99.90
32612;DHT22;19030;49.478;8.986;2023-08-20T07:53:07;29.50;99.90
32612;DHT22;19030;49.478;8.986;2023-08-20T07:55:08;29.50;99.90
32612;DHT22;19030;49.478;8.986;2023-08-20T07:57:08;29.60;99.90
32612;DHT22;19030;49.478;8.986;2023-08-20T07:59:09;29.60;99.90
32612;DHT22;19030;49.478;8.986;2023-08-20T08:01:09;29.60;99.90
32612;DHT22;19030;49.478;8.986;2023-08-20T08:03:10;29.60;99.90
32612;DHT22;19030;49.478;8.986;2023-08-20T08:05:11;29.60;99.90
32612;DHT22;19030;49.478;8.986;2023-08-20T08:07:13;29.60;99.90
32612;DHT22;19030;49.478;8.986;2023-08-20T08:09:30;29.80;99.90
32612;DHT22;19030;49.478;8.986;2023-08-20T08:11:31;30.00;99.90
32612;DHT22;19030;49.478;8.986;2023-08-20T08:13:31;30.20;99.90
32612;DHT22;19030;49.478;8.986;2023-08-20T08:15:32;30.20;99.90
32612;DHT22;19030;49.478;8.986;2023-08-20T08:17:32;30.00;99.90
32612;DHT22;19030;49.478;8.986;2023-08-20T08:19:33;30.00;99.90
32612;DHT22;19030;49.478;8.986;2023-08-20T08:21:34;30.10;99.90
32612;DHT22;19030;49.478;8.986;2023-08-20T08:23:34;30.00;99.90
32612;DHT22;19030;49.478;8.986;2023-08-20T08:25:35;30.00;99.90
32612;DHT22;19030;49.478;8.986;2023-08-20T08:27:35;30.20;99.90
32612;DHT22;19030;49.478;8.986;2023-08-20T08:29:36;30.70;99.90
32612;DHT22;19030;49.478;8.986;2023-08-20T08:31:37;31.40;99.90
32612;DHT22;19030;49.478;8.986;2023-08-20T08:33:37;32.60;99.90
32612;DHT22;19030;49.478;8.986;2023-08-20T08:35:38;33.20;97.30
32612;DHT22;19030;49.478;8.986;2023-08-20T08:37:38;33.20;95.70
32612;DHT22;19030;49.478;8.986;2023-08-20T08:39:39;33.70;95.30
32612;DHT22;19030;49.478;8.986;2023-08-20T08:41:41;34.80;93.50
32612;DHT22;19030;49.478;8.986;2023-08-20T08:43:42;35.00;90.90
32612;DHT22;19030;49.478;8.986;2023-08-20T08:45:47;35.50;90.50
32612;DHT22;19030;49.478;8.986;2023-08-20T08:47:50;36.60;84.30
32612;DHT22;19030;49.478;8.986;2023-08-20T08:49:57;37.70;78.00
32612;DHT22;19030;49.478;8.986;2023-08-20T08:51:58;38.70;70.00
32612;DHT22;19030;49.478;8.986;2023-08-20T08:53:59;39.50;65.90
32612;DHT22;19030;49.478;8.986;2023-08-20T08:56:00;40.20;60.20
32612;DHT22;19030;49.478;8.986;2023-08-20T08:58:01;40.80;57.00
32612;DHT22;19030;49.478;8.986;2023-08-20T09:00:01;41.40;55.10
32612;DHT22;19030;49.478;8.986;2023-08-20T09:02:08;41.70;53.40
32612;DHT22;19030;49.478;8.986;2023-08-20T09:04:09;42.10;51.00
32612;DHT22;19030;49.478;8.986;2023-08-20T09:06:10;42.30;51.40
32612;DHT22;19030;49.478;8.986;2023-08-20T09:08:19;42.70;49.80
32612;DHT22;19030;49.478;8.986;2023-08-20T09:10:20;43.00;47.40
32612;DHT22;19030;49.478;8.986;2023-08-20T09:12:20;43.20;47.50
32612;DHT22;19030;49.478;8.986;2023-08-20T09:14:23;43.20;46.10
32612;DHT22;19030;49.478;8.986;2023-08-20T09:16:30;43.60;45.60
32612;DHT22;19030;49.478;8.986;2023-08-20T09:18:41;44.00;44.50
32612;DHT22;19030;49.478;8.986;2023-08-20T09:20:42;44.30;44.10
32612;DHT22;19030;49.478;8.986;2023-08-20T09:22:48;44.80;43.50
32612;DHT22;19030;49.478;8.986;2023-08-20T09:24:56;45.10;42.00
32612;DHT22;19030;49.478;8.986;2023-08-20T09:26:58;45.40;41.30
32612;DHT22;19030;49.478;8.986;2023-08-20T09:28:59;45.60;40.80
32612;DHT22;19030;49.478;8.986;2023-08-20T09:31:00;46.00;38.80
32612;DHT22;19030;49.478;8.986;2023-08-20T09:33:11;46.30;38.00
32612;DHT22;19030;49.478;8.986;2023-08-20T09:35:18;46.20;37.00
32612;DHT22;19030;49.478;8.986;2023-08-20T09:37:20;46.50;37.70
32612;DHT22;19030;49.478;8.986;2023-08-20T09:39:21;46.80;36.40
32612;DHT22;19030;49.478;8.986;2023-08-20T09:41:23;46.90;35.60
32612;DHT22;19030;49.478;8.986;2023-08-20T09:43:24;46.80;35.50
32612;DHT22;19030;49.478;8.986;2023-08-20T09:45:29;46.90;35.40
32612;DHT22;19030;49.478;8.986;2023-08-20T09:47:32;46.40;36.40
32612;DHT22;19030;49.478;8.986;2023-08-20T09:51:40;46.20;36.20
32612;DHT22;19030;49.478;8.986;2023-08-20T09:53:48;46.00;36.00
32612;DHT22;19030;49.478;8.986;2023-08-20T09:55:50;46.20;37.10
32612;DHT22;19030;49.478;8.986;2023-08-20T09:57:53;45.90;36.10
32612;DHT22;19030;49.478;8.986;2023-08-20T09:59:54;45.80;35.80
32612;DHT22;19030;49.478;8.986;2023-08-20T10:01:55;45.80;35.30
32612;DHT22;19030;49.478;8.986;2023-08-20T10:03:57;45.80;36.40
32612;DHT22;19030;49.478;8.986;2023-08-20T10:05:58;46.50;35.50
32612;DHT22;19030;49.478;8.986;2023-08-20T10:08:00;47.00;33.80
32612;DHT22;19030;49.478;8.986;2023-08-20T10:10:03;47.00;34.40
32612;DHT22;19030;49.478;8.986;2023-08-20T10:12:04;46.70;35.10
32612;DHT22;19030;49.478;8.986;2023-08-20T10:14:05;46.70;34.00
32612;DHT22;19030;49.478;8.986;2023-08-20T10:16:06;46.90;33.90
32612;DHT22;19030;49.478;8.986;2023-08-20T10:18:07;47.20;33.10
32612;DHT22;19030;49.478;8.986;2023-08-20T10:20:09;47.10;32.30
32612;DHT22;19030;49.478;8.986;2023-08-20T10:22:13;47.10;32.30
32612;DHT22;19030;49.478;8.986;2023-08-20T10:24:17;47.40;32.50
32612;DHT22;19030;49.478;8.986;2023-08-20T10:26:21;47.50;32.80
32612;DHT22;19030;49.478;8.986;2023-08-20T10:28:25;47.60;32.70
32612;DHT22;19030;49.478;8.986;2023-08-20T10:30:26;47.20;32.40
32612;DHT22;19030;49.478;8.986;2023-08-20T10:34:51;46.40;32.80
32612;DHT22;19030;49.478;8.986;2023-08-20T10:36:54;46.30;33.60
32612;DHT22;19030;49.478;8.986;2023-08-20T10:38:55;46.20;34.00
32612;DHT22;19030;49.478;8.986;2023-08-20T10:40:58;44.90;34.00
32612;DHT22;19030;49.478;8.986;2023-08-20T10:43:01;43.40;36.10
32612;DHT22;19030;49.478;8.986;2023-08-20T10:45:05;42.10;37.60
32612;DHT22;19030;49.478;8.986;2023-08-20T10:47:09;41.50;39.00
32612;DHT22;19030;49.478;8.986;2023-08-20T10:49:16;41.00;37.40
32612;DHT22;19030;49.478;8.986;2023-08-20T10:51:33;40.60;39.00
32612;DHT22;19030;49.478;8.986;2023-08-20T10:53:33;40.40;40.00
32612;DHT22;19030;49.478;8.986;2023-08-20T10:55:35;40.40;38.50
32612;DHT22;19030;49.478;8.986;2023-08-20T10:57:36;40.70;40.10
32612;DHT22;19030;49.478;8.986;2023-08-20T10:59:40;40.90;39.70
32612;DHT22;19030;49.478;8.986;2023-08-20T11:01:46;40.80;40.40
32612;DHT22;19030;49.478;8.986;2023-08-20T11:03:49;41.00;40.20
32612;DHT22;19030;49.478;8.986;2023-08-20T11:05:50;41.20;39.10
32612;DHT22;19030;49.478;8.986;2023-08-20T11:07:51;41.20;38.70
32612;DHT22;19030;49.478;8.986;2023-08-20T11:09:51;41.20;39.70
32612;DHT22;19030;49.478;8.986;2023-08-20T11:11:54;41.20;38.60
32612;DHT22;19030;49.478;8.986;2023-08-20T11:13:54;41.00;38.20
32612;DHT22;19030;49.478;8.986;2023-08-20T11:15:55;40.60;38.20
32612;DHT22;19030;49.478;8.986;2023-08-20T11:17:57;40.10;39.40
32612;DHT22;19030;49.478;8.986;2023-08-20T11:19:57;39.90;39.30
32612;DHT22;19030;49.478;8.986;2023-08-20T11:21:59;39.90;39.60
32612;DHT22;19030;49.478;8.986;2023-08-20T11:24:00;39.80;40.10
32612;DHT22;19030;49.478;8.986;2023-08-20T11:26:01;39.90;41.70
32612;DHT22;19030;49.478;8.986;2023-08-20T11:28:02;40.10;38.90
32612;DHT22;19030;49.478;8.986;2023-08-20T11:30:04;40.30;39.90
32612;DHT22;19030;49.478;8.986;2023-08-20T11:32:04;40.20;38.80
32612;DHT22;19030;49.478;8.986;2023-08-20T11:34:05;40.10;40.40
32612;DHT22;19030;49.478;8.986;2023-08-20T11:36:06;40.20;40.10
32612;DHT22;19030;49.478;8.986;2023-08-20T11:38:07;40.20;38.70
32612;DHT22;19030;49.478;8.986;2023-08-20T11:40:09;40.20;38.70
32612;DHT22;19030;49.478;8.986;2023-08-20T11:42:10;40.10;38.70
32612;DHT22;19030;49.478;8.986;2023-08-20T11:44:18;39.90;40.00
32612;DHT22;19030;49.478;8.986;2023-08-20T11:46:20;39.60;40.40
32612;DHT22;19030;49.478;8.986;2023-08-20T11:48:22;39.30;39.70
32612;DHT22;19030;49.478;8.986;2023-08-20T11:50:23;39.00;40.20
32612;DHT22;19030;49.478;8.986;2023-08-20T11:52:23;39.00;40.30
32612;DHT22;19030;49.478;8.986;2023-08-20T11:54:24;39.00;41.10
32612;DHT22;19030;49.478;8.986;2023-08-20T11:56:27;39.20;40.90
32612;DHT22;19030;49.478;8.986;2023-08-20T11:58:28;39.30;39.40
32612;DHT22;19030;49.478;8.986;2023-08-20T12:00:30;39.30;39.70
32612;DHT22;19030;49.478;8.986;2023-08-20T12:02:31;39.30;39.70
32612;DHT22;19030;49.478;8.986;2023-08-20T12:04:32;39.10;40.10
32612;DHT22;19030;49.478;8.986;2023-08-20T12:06:34;39.10;40.90
32612;DHT22;19030;49.478;8.986;2023-08-20T12:08:37;39.30;40.40
32612;DHT22;19030;49.478;8.986;2023-08-20T12:10:42;39.50;39.40
32612;DHT22;19030;49.478;8.986;2023-08-20T12:12:43;39.50;39.80
32612;DHT22;19030;49.478;8.986;2023-08-20T12:14:44;39.50;40.10
32612;DHT22;19030;49.478;8.986;2023-08-20T12:16:45;39.40;40.30
32612;DHT22;19030;49.478;8.986;2023-08-20T12:18:46;39.50;40.40
32612;DHT22;19030;49.478;8.986;2023-08-20T12:20:47;39.50;39.50
32612;DHT22;19030;49.478;8.986;2023-08-20T12:22:47;39.70;41.30
32612;DHT22;19030;49.478;8.986;2023-08-20T12:24:48;39.80;40.00
32612;DHT22;19030;49.478;8.986;2023-08-20T12:26:52;39.40;40.50
32612;DHT22;19030;49.478;8.986;2023-08-20T12:28:53;38.70;41.00
32612;DHT22;19030;49.478;8.986;2023-08-20T12:30:55;38.40;42.30
32612;DHT22;19030;49.478;8.986;2023-08-20T12:32:55;38.70;42.40
32612;DHT22;19030;49.478;8.986;2023-08-20T12:34:56;39.10;41.20
32612;DHT22;19030;49.478;8.986;2023-08-20T12:36:57;39.40;40.90
32612;DHT22;19030;49.478;8.986;2023-08-20T12:38:57;39.50;40.70
32612;DHT22;19030;49.478;8.986;2023-08-20T12:40:58;39.50;41.40
32612;DHT22;19030;49.478;8.986;2023-08-20T12:42:58;39.40;41.80
32612;DHT22;19030;49.478;8.986;2023-08-20T12:44:59;39.20;41.60
32612;DHT22;19030;49.478;8.986;2023-08-20T12:47:00;39.00;42.40
32612;DHT22;19030;49.478;8.986;2023-08-20T12:49:01;39.20;42.30
32612;DHT22;19030;49.478;8.986;2023-08-20T12:51:01;39.30;42.20
32612;DHT22;19030;49.478;8.986;2023-08-20T12:53:03;39.20;42.60
32612;DHT22;19030;49.478;8.986;2023-08-20T12:55:04;39.10;42.60
32612;DHT22;19030;49.478;8.986;2023-08-20T12:57:06;39.10;41.80
32612;DHT22;19030;49.478;8.986;2023-08-20T12:59:07;39.10;42.70